sensor_id;sensor_type;location;lat;lon;timestamp;P1;durP1;ratioP1;P2;durP2;ratioP2
5937;SDS011;2994;51.220;4.412;2023-04-15T00:02:16;7.43;;;4.30;;
5937;SDS011;2994;51.220;4.412;2023-04-15T00:04:46;4.80;;;3.50;;
5937;SDS011;2994;51.220;4.412;2023-04-15T00:07:12;5.93;;;4.30;;
5937;SDS011;2994;51.220;4.412;2023-04-15T00:09:39;6.20;;;4.47;;
5937;SDS011;2994;51.220;4.412;2023-04-15T00:12:05;5.10;;;4.13;;
5937;SDS011;2994;51.220;4.412;2023-04-15T00:14:32;5.50;;;3.93;;
5937;SDS011;2994;51.220;4.412;2023-04-15T00:16:59;6.10;;;3.90;;
5937;SDS011;2994;51.220;4.412;2023-04-15T00:19:25;4.97;;;4.47;;
5937;SDS011;2994;51.220;4.412;2023-04-15T00:21:50;7.03;;;4.20;;
5937;SDS011;2994;51.220;4.412;2023-04-15T00:24:16;6.30;;;4.63;;
5937;SDS011;2994;51.220;4.412;2023-04-15T00:26:41;4.53;;;3.40;;
5937;SDS011;2994;51.220;4.412;2023-04-15T00:29:07;4.90;;;3.87;;
5937;SDS011;2994;51.220;4.412;2023-04-15T00:31:32;4.73;;;3.70;;
5937;SDS011;2994;51.220;4.412;2023-04-15T00:33:58;5.70;;;4.20;;
5937;SDS011;2994;51.220;4.412;2023-04-15T00:36:23;4.27;;;3.90;;
5937;SDS011;2994;51.220;4.412;2023-04-15T00:38:50;4.80;;;4.17;;
5937;SDS011;2994;51.220;4.412;2023-04-15T00:41:16;5.77;;;4.37;;
5937;SDS011;2994;51.220;4.412;2023-04-15T00:43:43;4.73;;;4.33;;
5937;SDS011;2994;51.220;4.412;2023-04-15T00:46:08;5.23;;;4.73;;
5937;SDS011;2994;51.220;4.412;2023-04-15T00:48:38;6.03;;;4.00;;
5937;SDS011;2994;51.220;4.412;2023-04-15T00:51:04;6.43;;;4.40;;
5937;SDS011;2994;51.220;4.412;2023-04-15T00:53:31;4.27;;;3.80;;
5937;SDS011;2994;51.220;4.412;2023-04-15T00:55:57;5.40;;;4.47;;
5937;SDS011;2994;51.220;4.412;2023-04-15T00:58:22;5.93;;;4.53;;
5937;SDS011;2994;51.220;4.412;2023-04-15T01:00:48;4.70;;;4.23;;
5937;SDS011;2994;51.220;4.412;2023-04-15T01:03:18;6.70;;;4.40;;
5937;SDS011;2994;51.220;4.412;2023-04-15T01:05:43;7.53;;;4.60;;
5937;SDS011;2994;51.220;4.412;2023-04-15T01:08:09;7.83;;;4.80;;
5937;SDS011;2994;51.220;4.412;2023-04-15T01:10:35;5.00;;;4.00;;
5937;SDS011;2994;51.220;4.412;2023-04-15T01:13:01;5.40;;;4.90;;
5937;SDS011;2994;51.220;4.412;2023-04-15T01:15:27;6.37;;;4.87;;
5937;SDS011;2994;51.220;4.412;2023-04-15T01:17:53;6.57;;;4.87;;
5937;SDS011;2994;51.220;4.412;2023-04-15T01:20:18;5.13;;;4.63;;
5937;SDS011;2994;51.220;4.412;2023-04-15T01:22:44;6.97;;;5.03;;
5937;SDS011;2994;51.220;4.412;2023-04-15T01:25:11;5.97;;;3.77;;
5937;SDS011;2994;51.220;4.412;2023-04-15T01:27:41;5.33;;;3.70;;
5937;SDS011;2994;51.220;4.412;2023-04-15T01:30:08;5.73;;;5.00;;
5937;SDS011;2994;51.220;4.412;2023-04-15T01:32:34;5.67;;;3.70;;
5937;SDS011;2994;51.220;4.412;2023-04-15T01:35:00;6.00;;;4.33;;
5937;SDS011;2994;51.220;4.412;2023-04-15T01:37:26;8.13;;;4.70;;
5937;SDS011;2994;51.220;4.412;2023-04-15T01:39:51;5.60;;;4.67;;
5937;SDS011;2994;51.220;4.412;2023-04-15T01:42:17;8.53;;;4.80;;
5937;SDS011;2994;51.220;4.412;2023-04-15T01:44:42;11.53;;;5.50;;
5937;SDS011;2994;51.220;4.412;2023-04-15T01:47:07;5.57;;;4.67;;
5937;SDS011;2994;51.220;4.412;2023-04-15T01:49:33;5.30;;;4.47;;
5937;SDS011;2994;51.220;4.412;2023-04-15T01:51:58;6.20;;;4.80;;
5937;SDS011;2994;51.220;4.412;2023-04-15T01:54:24;5.00;;;4.60;;
5937;SDS011;2994;51.220;4.412;2023-04-15T01:56:51;6.30;;;3.97;;
5937;SDS011;2994;51.220;4.412;2023-04-15T01:59:17;6.00;;;4.00;;
5937;SDS011;2994;51.220;4.412;2023-04-15T02:01:42;5.27;;;4.70;;
5937;SDS011;2994;51.220;4.412;2023-04-15T02:04:09;4.20;;;3.77;;
5937;SDS011;2994;51.220;4.412;2023-04-15T02:06:40;8.13;;;4.90;;
5937;SDS011;2994;51.220;4.412;2023-04-15T02:09:07;11.80;;;5.13;;
5937;SDS011;2994;51.220;4.412;2023-04-15T02:11:33;6.77;;;5.63;;
5937;SDS011;2994;51.220;4.412;2023-04-15T02:13:59;5.43;;;4.93;;
5937;SDS011;2994;51.220;4.412;2023-04-15T02:16:24;6.17;;;5.57;;
5937;SDS011;2994;51.220;4.412;2023-04-15T02:18:50;5.83;;;3.80;;
5937;SDS011;2994;51.220;4.412;2023-04-15T02:21:16;4.90;;;4.40;;
5937;SDS011;2994;51.220;4.412;2023-04-15T02:23:42;5.07;;;4.43;;
5937;SDS011;2994;51.220;4.412;2023-04-15T02:26:08;6.80;;;4.77;;
5937;SDS011;2994;51.220;4.412;2023-04-15T02:28:33;5.20;;;4.70;;
5937;SDS011;2994;51.220;4.412;2023-04-15T02:30:59;8.17;;;5.07;;
5937;SDS011;2994;51.220;4.412;2023-04-15T02:33:26;6.20;;;5.63;;
5937;SDS011;2994;51.220;4.412;2023-04-15T02:35:51;6.80;;;4.50;;
5937;SDS011;2994;51.220;4.412;2023-04-15T02:38:17;7.43;;;4.77;;
5937;SDS011;2994;51.220;4.412;2023-04-15T02:40:42;6.10;;;4.90;;
5937;SDS011;2994;51.220;4.412;2023-04-15T02:43:08;5.80;;;4.70;;
5937;SDS011;2994;51.220;4.412;2023-04-15T02:45:33;7.87;;;5.27;;
5937;SDS011;2994;51.220;4.412;2023-04-15T02:47:59;4.43;;;4.03;;
5937;SDS011;2994;51.220;4.412;2023-04-15T02:50:30;6.40;;;5.23;;
5937;SDS011;2994;51.220;4.412;2023-04-15T02:52:55;7.73;;;5.33;;
5937;SDS011;2994;51.220;4.412;2023-04-15T02:55:21;6.00;;;4.47;;
5937;SDS011;2994;51.220;4.412;2023-04-15T02:57:47;7.23;;;5.10;;
5937;SDS011;2994;51.220;4.412;2023-04-15T03:00:12;5.73;;;4.97;;
5937;SDS011;2994;51.220;4.412;2023-04-15T03:02:38;5.50;;;4.93;;
5937;SDS011;2994;51.220;4.412;2023-04-15T03:05:05;8.27;;;5.10;;
5937;SDS011;2994;51.220;4.412;2023-04-15T03:07:31;6.83;;;5.57;;
5937;SDS011;2994;51.220;4.412;2023-04-15T03:09:56;6.93;;;6.10;;
5937;SDS011;2994;51.220;4.412;2023-04-15T03:12:21;5.67;;;5.00;;
5937;SDS011;2994;51.220;4.412;2023-04-15T03:14:47;6.37;;;5.40;;
5937;SDS011;2994;51.220;4.412;2023-04-15T03:17:12;7.97;;;4.80;;
5937;SDS011;2994;51.220;4.412;2023-04-15T03:19:38;5.83;;;5.23;;
5937;SDS011;2994;51.220;4.412;2023-04-15T03:22:03;7.00;;;5.37;;
5937;SDS011;2994;51.220;4.412;2023-04-15T03:24:29;7.80;;;5.30;;
5937;SDS011;2994;51.220;4.412;2023-04-15T03:26:55;5.70;;;5.20;;
5937;SDS011;2994;51.220;4.412;2023-04-15T03:29:21;6.87;;;5.30;;
5937;SDS011;2994;51.220;4.412;2023-04-15T03:31:47;6.47;;;5.67;;
5937;SDS011;2994;51.220;4.412;2023-04-15T03:34:12;5.47;;;4.87;;
5937;SDS011;2994;51.220;4.412;2023-04-15T03:36:38;7.20;;;5.33;;
5937;SDS011;2994;51.220;4.412;2023-04-15T03:39:03;5.60;;;5.10;;
5937;SDS011;2994;51.220;4.412;2023-04-15T03:41:29;10.73;;;5.20;;
5937;SDS011;2994;51.220;4.412;2023-04-15T03:43:55;5.77;;;5.20;;
5937;SDS011;2994;51.220;4.412;2023-04-15T03:46:21;7.33;;;4.97;;
5937;SDS011;2994;51.220;4.412;2023-04-15T03:48:46;7.97;;;5.90;;
5937;SDS011;2994;51.220;4.412;2023-04-15T03:51:12;6.63;;;5.20;;
5937;SDS011;2994;51.220;4.412;2023-04-15T03:53:37;7.67;;;5.30;;
5937;SDS011;2994;51.220;4.412;2023-04-15T03:56:03;7.20;;;5.33;;
5937;SDS011;2994;51.220;4.412;2023-04-15T03:58:28;5.40;;;4.63;;
5937;SDS011;2994;51.220;4.412;2023-04-15T04:00:54;5.43;;;4.77;;
5937;SDS011;2994;51.220;4.412;2023-04-15T04:03:20;6.03;;;5.53;;
5937;SDS011;2994;51.220;4.412;2023-04-15T04:05:45;6.67;;;5.87;;
5937;SDS011;2994;51.220;4.412;2023-04-15T04:08:11;5.70;;;5.20;;
5937;SDS011;2994;51.220;4.412;2023-04-15T04:10:40;6.30;;;5.70;;
5937;SDS011;2994;51.220;4.412;2023-04-15T04:13:06;7.10;;;5.77;;
5937;SDS011;2994;51.220;4.412;2023-04-15T04:15:31;7.50;;;5.50;;
5937;SDS011;2994;51.220;4.412;2023-04-15T04:17:57;6.30;;;5.70;;
5937;SDS011;2994;51.220;4.412;2023-04-15T04:20:22;8.57;;;6.10;;
5937;SDS011;2994;51.220;4.412;2023-04-15T04:22:48;8.20;;;6.43;;
5937;SDS011;2994;51.220;4.412;2023-04-15T04:25:14;6.63;;;5.93;;
5937;SDS011;2994;51.220;4.412;2023-04-15T04:27:40;6.00;;;5.40;;
5937;SDS011;2994;51.220;4.412;2023-04-15T04:30:05;5.93;;;5.33;;
5937;SDS011;2994;51.220;4.412;2023-04-15T04:32:32;7.83;;;5.63;;
5937;SDS011;2994;51.220;4.412;2023-04-15T04:34:57;6.80;;;5.50;;
5937;SDS011;2994;51.220;4.412;2023-04-15T04:37:22;8.23;;;5.70;;
5937;SDS011;2994;51.220;4.412;2023-04-15T04:39:49;9.70;;;7.43;;
5937;SDS011;2994;51.220;4.412;2023-04-15T04:42:14;6.70;;;5.97;;
5937;SDS011;2994;51.220;4.412;2023-04-15T04:44:40;7.40;;;6.20;;
5937;SDS011;2994;51.220;4.412;2023-04-15T04:47:05;5.83;;;5.23;;
5937;SDS011;2994;51.220;4.412;2023-04-15T04:49:31;6.80;;;5.93;;
5937;SDS011;2994;51.220;4.412;2023-04-15T04:51:57;7.30;;;5.60;;
5937;SDS011;2994;51.220;4.412;2023-04-15T04:54:23;6.33;;;5.73;;
5937;SDS011;2994;51.220;4.412;2023-04-15T04:56:48;7.40;;;4.80;;
5937;SDS011;2994;51.220;4.412;2023-04-15T04:59:14;10.10;;;5.87;;
5937;SDS011;2994;51.220;4.412;2023-04-15T05:01:39;9.23;;;6.70;;
5937;SDS011;2994;51.220;4.412;2023-04-15T05:04:05;8.53;;;6.57;;
5937;SDS011;2994;51.220;4.412;2023-04-15T05:06:31;7.13;;;6.53;;
5937;SDS011;2994;51.220;4.412;2023-04-15T05:08:57;7.80;;;7.00;;
5937;SDS011;2994;51.220;4.412;2023-04-15T05:11:22;9.60;;;6.57;;
5937;SDS011;2994;51.220;4.412;2023-04-15T05:13:48;8.60;;;6.77;;
5937;SDS011;2994;51.220;4.412;2023-04-15T05:16:14;8.63;;;7.23;;
5937;SDS011;2994;51.220;4.412;2023-04-15T05:18:39;9.30;;;7.33;;
5937;SDS011;2994;51.220;4.412;2023-04-15T05:21:05;8.47;;;7.67;;
5937;SDS011;2994;51.220;4.412;2023-04-15T05:23:30;8.40;;;6.90;;
5937;SDS011;2994;51.220;4.412;2023-04-15T05:25:56;14.73;;;8.50;;
5937;SDS011;2994;51.220;4.412;2023-04-15T05:28:21;8.70;;;7.63;;
5937;SDS011;2994;51.220;4.412;2023-04-15T05:30:47;8.93;;;7.83;;
5937;SDS011;2994;51.220;4.412;2023-04-15T05:33:12;8.47;;;7.03;;
5937;SDS011;2994;51.220;4.412;2023-04-15T05:35:38;9.57;;;7.47;;
5937;SDS011;2994;51.220;4.412;2023-04-15T05:38:03;9.90;;;7.50;;
5937;SDS011;2994;51.220;4.412;2023-04-15T05:40:29;9.63;;;8.63;;
5937;SDS011;2994;51.220;4.412;2023-04-15T05:42:55;9.97;;;8.33;;
5937;SDS011;2994;51.220;4.412;2023-04-15T05:45:21;9.47;;;7.80;;
5937;SDS011;2994;51.220;4.412;2023-04-15T05:47:46;9.30;;;8.33;;
5937;SDS011;2994;51.220;4.412;2023-04-15T05:50:14;10.27;;;8.63;;
5937;SDS011;2994;51.220;4.412;2023-04-15T05:52:40;8.87;;;7.93;;
5937;SDS011;2994;51.220;4.412;2023-04-15T05:55:05;11.50;;;10.30;;
5937;SDS011;2994;51.220;4.412;2023-04-15T05:57:31;11.33;;;9.80;;
5937;SDS011;2994;51.220;4.412;2023-04-15T05:59:56;11.50;;;9.73;;
5937;SDS011;2994;51.220;4.412;2023-04-15T06:02:22;13.30;;;9.83;;
5937;SDS011;2994;51.220;4.412;2023-04-15T06:04:47;10.67;;;9.60;;
5937;SDS011;2994;51.220;4.412;2023-04-15T06:07:12;12.03;;;9.70;;
5937;SDS011;2994;51.220;4.412;2023-04-15T06:09:38;12.80;;;11.20;;
5937;SDS011;2994;51.220;4.412;2023-04-15T06:12:04;11.83;;;10.57;;
5937;SDS011;2994;51.220;4.412;2023-04-15T06:14:30;12.70;;;9.90;;
5937;SDS011;2994;51.220;4.412;2023-04-15T06:16:56;12.47;;;10.70;;
5937;SDS011;2994;51.220;4.412;2023-04-15T06:19:21;11.77;;;10.57;;
5937;SDS011;2994;51.220;4.412;2023-04-15T06:21:47;13.27;;;11.20;;
5937;SDS011;2994;51.220;4.412;2023-04-15T06:24:12;12.40;;;10.40;;
5937;SDS011;2994;51.220;4.412;2023-04-15T06:26:38;13.93;;;11.50;;
5937;SDS011;2994;51.220;4.412;2023-04-15T06:29:03;13.10;;;11.80;;
5937;SDS011;2994;51.220;4.412;2023-04-15T06:31:29;12.23;;;9.87;;
5937;SDS011;2994;51.220;4.412;2023-04-15T06:33:54;14.87;;;12.20;;
5937;SDS011;2994;51.220;4.412;2023-04-15T06:36:20;12.53;;;11.20;;
5937;SDS011;2994;51.220;4.412;2023-04-15T06:38:45;14.70;;;11.00;;
5937;SDS011;2994;51.220;4.412;2023-04-15T06:41:11;12.63;;;11.33;;
5937;SDS011;2994;51.220;4.412;2023-04-15T06:43:36;11.67;;;10.53;;
5937;SDS011;2994;51.220;4.412;2023-04-15T06:46:02;14.33;;;12.03;;
5937;SDS011;2994;51.220;4.412;2023-04-15T06:48:28;13.53;;;10.77;;
5937;SDS011;2994;51.220;4.412;2023-04-15T06:50:54;12.73;;;11.00;;
5937;SDS011;2994;51.220;4.412;2023-04-15T06:53:19;13.30;;;10.97;;
5937;SDS011;2994;51.220;4.412;2023-04-15T06:55:45;14.00;;;10.20;;
5937;SDS011;2994;51.220;4.412;2023-04-15T06:58:10;11.27;;;10.17;;
5937;SDS011;2994;51.220;4.412;2023-04-15T07:00:36;13.13;;;11.83;;
5937;SDS011;2994;51.220;4.412;2023-04-15T07:03:03;13.23;;;11.73;;
5937;SDS011;2994;51.220;4.412;2023-04-15T07:05:29;12.93;;;10.80;;
5937;SDS011;2994;51.220;4.412;2023-04-15T07:07:56;13.80;;;10.93;;
5937;SDS011;2994;51.220;4.412;2023-04-15T07:10:22;12.53;;;11.23;;
5937;SDS011;2994;51.220;4.412;2023-04-15T07:12:48;11.77;;;9.53;;
5937;SDS011;2994;51.220;4.412;2023-04-15T07:15:14;13.90;;;11.37;;
5937;SDS011;2994;51.220;4.412;2023-04-15T07:17:40;15.97;;;11.90;;
5937;SDS011;2994;51.220;4.412;2023-04-15T07:20:10;11.33;;;10.23;;
5937;SDS011;2994;51.220;4.412;2023-04-15T07:22:36;10.83;;;9.70;;
5937;SDS011;2994;51.220;4.412;2023-04-15T07:25:02;12.00;;;10.80;;
5937;SDS011;2994;51.220;4.412;2023-04-15T07:27:28;10.03;;;9.03;;
5937;SDS011;2994;51.220;4.412;2023-04-15T07:29:53;12.10;;;9.07;;
5937;SDS011;2994;51.220;4.412;2023-04-15T07:32:18;11.30;;;9.37;;
5937;SDS011;2994;51.220;4.412;2023-04-15T07:34:44;10.43;;;9.40;;
5937;SDS011;2994;51.220;4.412;2023-04-15T07:37:10;11.30;;;10.20;;
5937;SDS011;2994;51.220;4.412;2023-04-15T07:39:35;10.60;;;9.63;;
5937;SDS011;2994;51.220;4.412;2023-04-15T07:42:01;10.33;;;9.30;;
5937;SDS011;2994;51.220;4.412;2023-04-15T07:44:28;10.53;;;8.70;;
5937;SDS011;2994;51.220;4.412;2023-04-15T07:46:54;9.67;;;8.67;;
5937;SDS011;2994;51.220;4.412;2023-04-15T07:49:20;11.90;;;9.03;;
5937;SDS011;2994;51.220;4.412;2023-04-15T07:51:46;9.37;;;8.43;;
5937;SDS011;2994;51.220;4.412;2023-04-15T07:54:12;10.60;;;9.60;;
5937;SDS011;2994;51.220;4.412;2023-04-15T07:56:38;10.13;;;9.00;;
5937;SDS011;2994;51.220;4.412;2023-04-15T07:59:03;10.33;;;9.23;;
5937;SDS011;2994;51.220;4.412;2023-04-15T08:01:30;9.97;;;8.10;;
5937;SDS011;2994;51.220;4.412;2023-04-15T08:03:56;10.60;;;9.53;;
5937;SDS011;2994;51.220;4.412;2023-04-15T08:06:22;10.63;;;7.60;;
5937;SDS011;2994;51.220;4.412;2023-04-15T08:08:48;11.70;;;8.70;;
5937;SDS011;2994;51.220;4.412;2023-04-15T08:11:13;9.67;;;8.67;;
5937;SDS011;2994;51.220;4.412;2023-04-15T08:13:39;10.83;;;8.50;;
5937;SDS011;2994;51.220;4.412;2023-04-15T08:16:12;8.90;;;8.00;;
5937;SDS011;2994;51.220;4.412;2023-04-15T08:18:40;9.53;;;8.27;;
5937;SDS011;2994;51.220;4.412;2023-04-15T08:21:05;8.83;;;6.90;;
5937;SDS011;2994;51.220;4.412;2023-04-15T08:23:31;7.60;;;6.70;;
5937;SDS011;2994;51.220;4.412;2023-04-15T08:25:57;8.50;;;7.60;;
5937;SDS011;2994;51.220;4.412;2023-04-15T08:28:23;10.77;;;7.40;;
5937;SDS011;2994;51.220;4.412;2023-04-15T08:30:48;11.60;;;7.03;;
5937;SDS011;2994;51.220;4.412;2023-04-15T08:33:14;9.40;;;7.40;;
5937;SDS011;2994;51.220;4.412;2023-04-15T08:35:40;9.27;;;7.53;;
5937;SDS011;2994;51.220;4.412;2023-04-15T08:38:05;7.50;;;6.30;;
5937;SDS011;2994;51.220;4.412;2023-04-15T08:40:33;9.63;;;8.37;;
5937;SDS011;2994;51.220;4.412;2023-04-15T08:43:07;7.53;;;6.83;;
5937;SDS011;2994;51.220;4.412;2023-04-15T08:45:36;8.80;;;6.60;;
5937;SDS011;2994;51.220;4.412;2023-04-15T08:48:03;6.40;;;5.80;;
5937;SDS011;2994;51.220;4.412;2023-04-15T08:50:30;8.20;;;7.40;;
5937;SDS011;2994;51.220;4.412;2023-04-15T08:53:00;7.90;;;7.07;;
5937;SDS011;2994;51.220;4.412;2023-04-15T08:55:27;7.40;;;6.60;;
5937;SDS011;2994;51.220;4.412;2023-04-15T08:57:57;7.27;;;6.60;;
5937;SDS011;2994;51.220;4.412;2023-04-15T09:00:23;7.50;;;6.80;;
5937;SDS011;2994;51.220;4.412;2023-04-15T09:02:49;5.93;;;5.30;;
5937;SDS011;2994;51.220;4.412;2023-04-15T09:05:16;6.30;;;5.70;;
5937;SDS011;2994;51.220;4.412;2023-04-15T09:07:41;7.30;;;6.60;;
5937;SDS011;2994;51.220;4.412;2023-04-15T09:10:07;6.30;;;5.00;;
5937;SDS011;2994;51.220;4.412;2023-04-15T09:12:34;8.67;;;5.50;;
5937;SDS011;2994;51.220;4.412;2023-04-15T09:15:00;5.27;;;4.87;;
5937;SDS011;2994;51.220;4.412;2023-04-15T09:17:26;6.10;;;5.50;;
5937;SDS011;2994;51.220;4.412;2023-04-15T09:20:13;6.50;;;5.90;;
5937;SDS011;2994;51.220;4.412;2023-04-15T09:22:42;6.73;;;5.93;;
5937;SDS011;2994;51.220;4.412;2023-04-15T09:27:50;5.83;;;4.43;;
5937;SDS011;2994;51.220;4.412;2023-04-15T09:30:17;7.67;;;5.60;;
5937;SDS011;2994;51.220;4.412;2023-04-15T09:32:56;5.90;;;4.70;;
5937;SDS011;2994;51.220;4.412;2023-04-15T09:35:24;5.37;;;4.30;;
5937;SDS011;2994;51.220;4.412;2023-04-15T09:37:51;5.90;;;4.83;;
5937;SDS011;2994;51.220;4.412;2023-04-15T09:40:36;3.73;;;3.40;;
5937;SDS011;2994;51.220;4.412;2023-04-15T09:43:04;5.83;;;4.10;;
5937;SDS011;2994;51.220;4.412;2023-04-15T09:45:31;4.47;;;4.00;;
5937;SDS011;2994;51.220;4.412;2023-04-15T09:47:58;4.73;;;4.13;;
5937;SDS011;2994;51.220;4.412;2023-04-15T09:50:39;6.60;;;4.53;;
5937;SDS011;2994;51.220;4.412;2023-04-15T09:53:07;4.00;;;3.60;;
5937;SDS011;2994;51.220;4.412;2023-04-15T09:55:34;5.23;;;4.73;;
5937;SDS011;2994;51.220;4.412;2023-04-15T09:58:00;4.20;;;3.50;;
5937;SDS011;2994;51.220;4.412;2023-04-15T10:00:25;4.33;;;3.93;;
5937;SDS011;2994;51.220;4.412;2023-04-15T10:02:53;4.87;;;4.13;;
5937;SDS011;2994;51.220;4.412;2023-04-15T10:05:19;5.00;;;4.57;;
5937;SDS011;2994;51.220;4.412;2023-04-15T10:07:45;5.67;;;3.87;;
5937;SDS011;2994;51.220;4.412;2023-04-15T10:10:11;5.30;;;4.60;;
5937;SDS011;2994;51.220;4.412;2023-04-15T10:12:37;4.70;;;4.30;;
5937;SDS011;2994;51.220;4.412;2023-04-15T10:15:05;4.57;;;4.10;;
5937;SDS011;2994;51.220;4.412;2023-04-15T10:17:40;4.70;;;3.80;;
5937;SDS011;2994;51.220;4.412;2023-04-15T10:20:08;4.10;;;3.70;;
5937;SDS011;2994;51.220;4.412;2023-04-15T10:22:36;5.23;;;4.37;;
5937;SDS011;2994;51.220;4.412;2023-04-15T10:25:02;4.83;;;4.30;;
5937;SDS011;2994;51.220;4.412;2023-04-15T10:27:28;4.53;;;3.73;;
5937;SDS011;2994;51.220;4.412;2023-04-15T10:29:54;4.10;;;3.30;;
5937;SDS011;2994;51.220;4.412;2023-04-15T10:32:21;3.97;;;3.30;;
5937;SDS011;2994;51.220;4.412;2023-04-15T10:34:48;3.70;;;2.80;;
5937;SDS011;2994;51.220;4.412;2023-04-15T10:37:22;3.83;;;3.53;;
5937;SDS011;2994;51.220;4.412;2023-04-15T10:39:57;4.47;;;3.97;;
5937;SDS011;2994;51.220;4.412;2023-04-15T10:42:23;3.60;;;3.30;;
5937;SDS011;2994;51.220;4.412;2023-04-15T10:44:49;5.07;;;3.50;;
5937;SDS011;2994;51.220;4.412;2023-04-15T10:47:16;4.93;;;4.37;;
5937;SDS011;2994;51.220;4.412;2023-04-15T10:50:16;4.67;;;4.27;;
5937;SDS011;2994;51.220;4.412;2023-04-15T10:52:36;6.60;;;4.37;;
5937;SDS011;2994;51.220;4.412;2023-04-15T10:55:12;3.70;;;3.40;;
5937;SDS011;2994;51.220;4.412;2023-04-15T10:57:41;4.23;;;3.37;;
5937;SDS011;2994;51.220;4.412;2023-04-15T11:08:07;3.83;;;3.43;;
5937;SDS011;2994;51.220;4.412;2023-04-15T11:13:01;5.23;;;3.80;;
5937;SDS011;2994;51.220;4.412;2023-04-15T11:15:38;5.50;;;3.90;;
5937;SDS011;2994;51.220;4.412;2023-04-15T11:20:37;4.60;;;3.77;;
5937;SDS011;2994;51.220;4.412;2023-04-15T11:23:04;4.30;;;3.90;;
5937;SDS011;2994;51.220;4.412;2023-04-15T11:25:31;5.13;;;3.87;;
5937;SDS011;2994;51.220;4.412;2023-04-15T11:27:58;4.43;;;3.60;;
5937;SDS011;2994;51.220;4.412;2023-04-15T11:30:26;4.03;;;3.10;;
5937;SDS011;2994;51.220;4.412;2023-04-15T11:32:54;3.00;;;2.77;;
5937;SDS011;2994;51.220;4.412;2023-04-15T11:35:22;4.13;;;2.60;;
5937;SDS011;2994;51.220;4.412;2023-04-15T11:48:11;3.40;;;2.77;;
5937;SDS011;2994;51.220;4.412;2023-04-15T11:50:37;4.07;;;3.67;;
5937;SDS011;2994;51.220;4.412;2023-04-15T11:56:22;5.17;;;3.60;;
5937;SDS011;2994;51.220;4.412;2023-04-15T11:58:54;4.83;;;4.17;;
5937;SDS011;2994;51.220;4.412;2023-04-15T12:01:34;4.50;;;4.10;;
5937;SDS011;2994;51.220;4.412;2023-04-15T12:04:12;5.53;;;3.70;;
5937;SDS011;2994;51.220;4.412;2023-04-15T12:06:44;3.53;;;3.17;;
5937;SDS011;2994;51.220;4.412;2023-04-15T12:11:49;5.40;;;3.10;;
5937;SDS011;2994;51.220;4.412;2023-04-15T12:14:27;4.57;;;2.80;;
5937;SDS011;2994;51.220;4.412;2023-04-15T12:16:59;4.10;;;2.70;;
5937;SDS011;2994;51.220;4.412;2023-04-15T12:19:30;4.20;;;2.63;;
5937;SDS011;2994;51.220;4.412;2023-04-15T12:22:03;4.73;;;2.93;;
5937;SDS011;2994;51.220;4.412;2023-04-15T12:24:40;4.17;;;2.90;;
5937;SDS011;2994;51.220;4.412;2023-04-15T12:27:12;4.87;;;3.60;;
5937;SDS011;2994;51.220;4.412;2023-04-15T12:29:41;3.53;;;2.87;;
5937;SDS011;2994;51.220;4.412;2023-04-15T12:32:08;4.47;;;2.90;;
5937;SDS011;2994;51.220;4.412;2023-04-15T12:34:42;4.67;;;2.97;;
5937;SDS011;2994;51.220;4.412;2023-04-15T12:37:10;3.90;;;3.03;;
5937;SDS011;2994;51.220;4.412;2023-04-15T12:39:38;4.93;;;2.67;;
5937;SDS011;2994;51.220;4.412;2023-04-15T12:42:05;2.90;;;2.40;;
5937;SDS011;2994;51.220;4.412;2023-04-15T12:44:31;4.00;;;2.90;;
5937;SDS011;2994;51.220;4.412;2023-04-15T12:46:58;2.80;;;2.60;;
5937;SDS011;2994;51.220;4.412;2023-04-15T12:49:24;2.33;;;2.10;;
5937;SDS011;2994;51.220;4.412;2023-04-15T12:51:51;3.80;;;2.47;;
5937;SDS011;2994;51.220;4.412;2023-04-15T12:54:19;3.57;;;2.50;;
5937;SDS011;2994;51.220;4.412;2023-04-15T12:56:45;4.93;;;3.13;;
5937;SDS011;2994;51.220;4.412;2023-04-15T12:59:11;3.80;;;3.37;;
5937;SDS011;2994;51.220;4.412;2023-04-15T13:01:37;4.37;;;3.20;;
5937;SDS011;2994;51.220;4.412;2023-04-15T13:04:03;3.00;;;2.67;;
5937;SDS011;2994;51.220;4.412;2023-04-15T13:06:29;4.70;;;3.10;;
5937;SDS011;2994;51.220;4.412;2023-04-15T13:08:57;6.13;;;2.90;;
5937;SDS011;2994;51.220;4.412;2023-04-15T13:11:23;3.00;;;2.70;;
5937;SDS011;2994;51.220;4.412;2023-04-15T13:13:49;3.93;;;3.27;;
5937;SDS011;2994;51.220;4.412;2023-04-15T13:16:16;4.70;;;3.60;;
5937;SDS011;2994;51.220;4.412;2023-04-15T13:18:41;3.57;;;2.33;;
5937;SDS011;2994;51.220;4.412;2023-04-15T13:21:11;2.00;;;1.70;;
5937;SDS011;2994;51.220;4.412;2023-04-15T13:23:36;2.30;;;1.60;;
5937;SDS011;2994;51.220;4.412;2023-04-15T13:26:05;1.50;;;1.40;;
5937;SDS011;2994;51.220;4.412;2023-04-15T13:28:39;1.60;;;1.30;;
5937;SDS011;2994;51.220;4.412;2023-04-15T13:31:05;1.80;;;1.47;;
5937;SDS011;2994;51.220;4.412;2023-04-15T13:33:30;2.27;;;2.07;;
5937;SDS011;2994;51.220;4.412;2023-04-15T13:35:56;3.10;;;1.60;;
5937;SDS011;2994;51.220;4.412;2023-04-15T13:38:24;2.40;;;1.97;;
5937;SDS011;2994;51.220;4.412;2023-04-15T13:40:50;1.80;;;1.60;;
5937;SDS011;2994;51.220;4.412;2023-04-15T13:43:15;2.90;;;2.60;;
5937;SDS011;2994;51.220;4.412;2023-04-15T13:45:45;2.10;;;1.90;;
5937;SDS011;2994;51.220;4.412;2023-04-15T13:48:10;2.33;;;2.10;;
5937;SDS011;2994;51.220;4.412;2023-04-15T13:50:36;2.50;;;2.30;;
5937;SDS011;2994;51.220;4.412;2023-04-15T13:53:01;3.30;;;2.37;;
5937;SDS011;2994;51.220;4.412;2023-04-15T13:55:26;3.17;;;2.57;;
5937;SDS011;2994;51.220;4.412;2023-04-15T13:57:52;3.20;;;2.90;;
5937;SDS011;2994;51.220;4.412;2023-04-15T14:00:18;4.00;;;3.57;;
5937;SDS011;2994;51.220;4.412;2023-04-15T14:02:43;4.70;;;3.10;;
5937;SDS011;2994;51.220;4.412;2023-04-15T14:05:09;3.03;;;2.63;;
5937;SDS011;2994;51.220;4.412;2023-04-15T14:07:35;2.97;;;2.30;;
5937;SDS011;2994;51.220;4.412;2023-04-15T14:10:01;3.07;;;2.77;;
5937;SDS011;2994;51.220;4.412;2023-04-15T14:12:27;5.30;;;2.87;;
5937;SDS011;2994;51.220;4.412;2023-04-15T14:14:53;2.77;;;2.57;;
5937;SDS011;2994;51.220;4.412;2023-04-15T14:17:18;3.00;;;2.57;;
5937;SDS011;2994;51.220;4.412;2023-04-15T14:19:44;4.40;;;3.47;;
5937;SDS011;2994;51.220;4.412;2023-04-15T14:22:09;4.00;;;2.50;;
5937;SDS011;2994;51.220;4.412;2023-04-15T14:24:35;3.07;;;2.77;;
5937;SDS011;2994;51.220;4.412;2023-04-15T14:27:00;3.20;;;2.70;;
5937;SDS011;2994;51.220;4.412;2023-04-15T14:29:26;3.10;;;2.80;;
5937;SDS011;2994;51.220;4.412;2023-04-15T14:31:52;4.33;;;3.10;;
5937;SDS011;2994;51.220;4.412;2023-04-15T14:34:17;2.50;;;2.20;;
5937;SDS011;2994;51.220;4.412;2023-04-15T14:36:43;6.77;;;2.97;;
5937;SDS011;2994;51.220;4.412;2023-04-15T14:39:08;3.43;;;2.57;;
5937;SDS011;2994;51.220;4.412;2023-04-15T14:41:34;3.20;;;2.30;;
5937;SDS011;2994;51.220;4.412;2023-04-15T14:44:00;2.50;;;2.27;;
5937;SDS011;2994;51.220;4.412;2023-04-15T14:46:26;2.80;;;2.50;;
5937;SDS011;2994;51.220;4.412;2023-04-15T14:48:51;3.37;;;2.40;;
5937;SDS011;2994;51.220;4.412;2023-04-15T14:51:17;4.73;;;2.97;;
5937;SDS011;2994;51.220;4.412;2023-04-15T14:53:43;2.60;;;2.40;;
5937;SDS011;2994;51.220;4.412;2023-04-15T14:56:09;2.60;;;2.40;;
5937;SDS011;2994;51.220;4.412;2023-04-15T14:58:35;5.30;;;2.37;;
5937;SDS011;2994;51.220;4.412;2023-04-15T15:01:00;3.60;;;2.87;;
5937;SDS011;2994;51.220;4.412;2023-04-15T15:03:27;2.33;;;2.03;;
5937;SDS011;2994;51.220;4.412;2023-04-15T15:05:53;3.53;;;2.70;;
5937;SDS011;2994;51.220;4.412;2023-04-15T15:08:18;3.60;;;2.70;;
5937;SDS011;2994;51.220;4.412;2023-04-15T15:10:44;3.43;;;3.13;;
5937;SDS011;2994;51.220;4.412;2023-04-15T15:13:10;3.60;;;2.70;;
5937;SDS011;2994;51.220;4.412;2023-04-15T15:15:36;3.10;;;1.97;;
5937;SDS011;2994;51.220;4.412;2023-04-15T15:18:02;3.57;;;2.27;;
5937;SDS011;2994;51.220;4.412;2023-04-15T15:20:28;3.93;;;2.20;;
5937;SDS011;2994;51.220;4.412;2023-04-15T15:22:54;2.77;;;2.47;;
5937;SDS011;2994;51.220;4.412;2023-04-15T15:25:20;5.90;;;2.30;;
5937;SDS011;2994;51.220;4.412;2023-04-15T15:27:45;2.40;;;2.10;;
5937;SDS011;2994;51.220;4.412;2023-04-15T15:30:11;2.03;;;1.70;;
5937;SDS011;2994;51.220;4.412;2023-04-15T15:32:38;2.73;;;2.40;;
5937;SDS011;2994;51.220;4.412;2023-04-15T15:35:05;2.77;;;2.17;;
5937;SDS011;2994;51.220;4.412;2023-04-15T15:37:31;3.50;;;2.43;;
5937;SDS011;2994;51.220;4.412;2023-04-15T15:39:59;2.50;;;2.30;;
5937;SDS011;2994;51.220;4.412;2023-04-15T15:42:25;3.20;;;2.40;;